METAR Data
IDs: Format: Raw Decoded Include TAF

Data at: 0028 UTC 05 Jul 2022

KRMY 050015Z AUTO 15003KT 10SM CLR 27/18 A2999 RMK AO2 T02700178